Time;durP1;ratioP1;P1;durP2;ratioP2;P2;SDS_P1;SDS_P2;PMS_P1;PMS_P2;Temp;Humidity;BMP_temperature;BMP_pressure;BME280_temperature;BME280_humidity;BME280_pressure;Samples;Min_cycle;Max_cycle;Signal;HPM_P1;HPM_P2
2022/03/24 00:00:23;;;;;;;23.90;11.10;;;;;;;;;;5000468;28;20037;-88
2022/03/24 00:02:49;;;;;;;32.63;12.13;;;;;;;;;;5016961;28;20026;-87
2022/03/24 00:05:15;;;;;;;22.40;10.32;;;;;;;;;;4999788;28;20038;-88
2022/03/24 00:07:41;;;;;;;21.95;10.38;;;;;;;;;;5007945;28;20031;-87
2022/03/24 00:10:07;;;;;;;19.58;10.05;;;;;;;;;;4993763;28;20056;-86
2022/03/24 00:12:34;;;;;;;19.77;9.98;;;;;;;;;;4975959;28;20066;-87
2022/03/24 00:15:00;;;;;;;22.83;10.65;;;;;;;;;;4994195;28;20029;-87
2022/03/24 00:17:26;;;;;;;19.95;10.48;;;;;;;;;;5000215;28;20034;-87
2022/03/24 00:19:52;;;;;;;16.13;9.50;;;;;;;;;;5013262;28;20053;-86
2022/03/24 00:22:18;;;;;;;19.98;10.25;;;;;;;;;;5013829;28;20090;-86
2022/03/24 00:24:44;;;;;;;19.80;10.02;;;;;;;;;;5013354;28;20078;-85
2022/03/24 00:27:10;;;;;;;20.75;9.93;;;;;;;;;;5013317;28;20497;-86
2022/03/24 00:29:36;;;;;;;16.08;9.68;;;;;;;;;;4988751;28;20038;-87
2022/03/24 00:32:02;;;;;;;15.05;9.00;;;;;;;;;;4976229;28;20368;-87
2022/03/24 00:34:28;;;;;;;17.38;9.88;;;;;;;;;;4975993;28;20192;-86
2022/03/24 00:36:54;;;;;;;19.52;9.32;;;;;;;;;;4993663;28;20062;-87
2022/03/24 00:39:20;;;;;;;22.67;10.73;;;;;;;;;;4976078;28;20032;-87
2022/03/24 00:41:46;;;;;;;17.75;10.00;;;;;;;;;;4993834;28;20023;-86
2022/03/24 00:44:13;;;;;;;20.15;9.98;;;;;;;;;;4993782;28;20027;-86
2022/03/24 00:46:39;;;;;;;18.45;10.30;;;;;;;;;;4994227;28;20014;-86
2022/03/24 00:49:05;;;;;;;18.15;10.23;;;;;;;;;;4977095;28;20065;-87
2022/03/24 00:51:31;;;;;;;16.15;9.93;;;;;;;;;;4994281;28;20030;-86
2022/03/24 00:53:57;;;;;;;20.73;10.38;;;;;;;;;;4994525;28;20465;-86
2022/03/24 00:56:23;;;;;;;19.67;10.30;;;;;;;;;;4977448;28;20084;-85
2022/03/24 00:58:49;;;;;;;20.10;11.18;;;;;;;;;;4994401;28;20018;-86
2022/03/24 01:01:15;;;;;;;20.05;11.25;;;;;;;;;;4976746;28;20052;-87
2022/03/24 01:03:42;;;;;;;21.38;10.05;;;;;;;;;;4977658;28;20035;-86
2022/03/24 01:06:09;;;;;;;21.95;10.20;;;;;;;;;;4994781;28;20513;-87
2022/03/24 01:08:35;;;;;;;17.85;9.25;;;;;;;;;;4977303;28;20068;-86
2022/03/24 01:11:02;;;;;;;19.17;10.30;;;;;;;;;;4976549;28;20027;-87
2022/03/24 01:13:28;;;;;;;20.63;10.55;;;;;;;;;;4993911;28;20094;-87
2022/03/24 01:15:55;;;;;;;19.45;10.13;;;;;;;;;;4976337;28;20093;-87
2022/03/24 01:18:21;;;;;;;19.73;10.27;;;;;;;;;;5008463;28;20022;-86
2022/03/24 01:20:47;;;;;;;28.58;11.50;;;;;;;;;;5025099;28;20033;-87
2022/03/24 01:23:13;;;;;;;22.25;11.55;;;;;;;;;;5013424;28;20101;-88
2022/03/24 01:25:42;;;;;;;20.90;11.10;;;;;;;;;;4999613;28;20022;-86
2022/03/24 01:28:09;;;;;;;21.10;11.68;;;;;;;;;;5016585;28;20022;-86
2022/03/24 01:30:35;;;;;;;26.17;11.25;;;;;;;;;;5003983;28;20027;-88
2022/03/24 01:33:01;;;;;;;22.73;10.57;;;;;;;;;;4996862;28;20077;-86
2022/03/24 01:35:27;;;;;;;28.08;12.05;;;;;;;;;;4996915;28;20463;-86
2022/03/24 01:37:53;;;;;;;18.98;10.57;;;;;;;;;;4997778;28;20034;-86
2022/03/24 01:40:19;;;;;;;22.73;10.52;;;;;;;;;;4979680;28;20105;-87
2022/03/24 01:42:46;;;;;;;24.85;11.73;;;;;;;;;;4979600;28;20406;-87
2022/03/24 01:45:14;;;;;;;20.10;10.70;;;;;;;;;;4997109;28;20037;-88
2022/03/24 01:47:40;;;;;;;22.73;11.65;;;;;;;;;;4997610;28;20068;-87
2022/03/24 01:50:07;;;;;;;24.33;11.93;;;;;;;;;;4982648;28;20030;-87
2022/03/24 01:52:33;;;;;;;22.13;11.10;;;;;;;;;;5000699;28;20061;-87
2022/03/24 01:54:59;;;;;;;26.30;11.27;;;;;;;;;;4982254;28;20631;-87
2022/03/24 01:57:26;;;;;;;25.92;11.27;;;;;;;;;;5000020;28;20117;-87
2022/03/24 01:59:53;;;;;;;26.20;11.68;;;;;;;;;;5004210;28;20440;-86
2022/03/24 02:02:20;;;;;;;25.30;11.82;;;;;;;;;;5003741;28;20045;-86
2022/03/24 02:04:46;;;;;;;20.67;12.20;;;;;;;;;;4986704;28;20022;-86
2022/03/24 02:07:13;;;;;;;24.13;12.10;;;;;;;;;;5004780;28;20045;-87
2022/03/24 02:09:39;;;;;;;20.48;11.57;;;;;;;;;;4985915;28;20363;-86
2022/03/24 02:12:10;;;;;;;23.75;11.65;;;;;;;;;;4982283;28;20117;-86
2022/03/24 02:14:36;;;;;;;21.30;11.88;;;;;;;;;;4999517;28;20046;-86
2022/03/24 02:17:02;;;;;;;25.42;12.68;;;;;;;;;;5002895;28;20033;-86
2022/03/24 02:19:28;;;;;;;21.17;11.50;;;;;;;;;;5019787;28;20069;-86
2022/03/24 02:21:56;;;;;;;22.50;12.05;;;;;;;;;;5001706;28;20026;-86
2022/03/24 02:24:23;;;;;;;22.73;12.15;;;;;;;;;;4996772;28;20111;-85
2022/03/24 02:26:50;;;;;;;24.30;12.52;;;;;;;;;;4999192;28;20030;-86
2022/03/24 02:29:17;;;;;;;23.90;12.18;;;;;;;;;;4998844;28;20397;-86
2022/03/24 02:31:45;;;;;;;32.85;13.02;;;;;;;;;;4981134;28;20034;-86
2022/03/24 02:36:58;;;;;;;24.10;13.05;;;;;;;;;;4997604;28;20486;-86
2022/03/24 02:39:24;;;;;;;24.08;12.68;;;;;;;;;;4998161;28;20030;-86
2022/03/24 02:41:54;;;;;;;22.13;12.57;;;;;;;;;;4989574;28;20026;-87
2022/03/24 02:44:21;;;;;;;27.45;13.27;;;;;;;;;;5003121;28;20026;-86
2022/03/24 02:46:47;;;;;;;23.92;11.65;;;;;;;;;;4998653;28;20026;-85
2022/03/24 02:49:17;;;;;;;24.77;12.00;;;;;;;;;;4980975;28;20038;-86
2022/03/24 02:51:43;;;;;;;22.63;12.45;;;;;;;;;;4987105;28;20061;-86
2022/03/24 02:54:09;;;;;;;27.25;12.40;;;;;;;;;;5003352;28;20034;-86
2022/03/24 02:56:36;;;;;;;23.10;12.30;;;;;;;;;;4980298;28;20105;-87
2022/03/24 02:59:04;;;;;;;24.83;11.43;;;;;;;;;;4996262;28;20084;-86
2022/03/24 03:01:30;;;;;;;22.48;11.98;;;;;;;;;;4997224;28;20109;-86
2022/03/24 03:03:56;;;;;;;24.08;12.30;;;;;;;;;;4997066;28;20105;-86
2022/03/24 03:06:22;;;;;;;24.73;12.18;;;;;;;;;;4981000;28;20026;-86
2022/03/24 03:08:52;;;;;;;22.90;12.73;;;;;;;;;;4995657;28;20022;-85
2022/03/24 03:11:20;;;;;;;21.92;13.05;;;;;;;;;;4977506;28;20052;-86
2022/03/24 03:13:46;;;;;;;24.60;11.93;;;;;;;;;;4994741;28;20556;-86
2022/03/24 03:16:13;;;;;;;22.67;12.10;;;;;;;;;;4994726;28;20521;-86
2022/03/24 03:18:41;;;;;;;22.27;12.82;;;;;;;;;;5007920;28;20026;-86
2022/03/24 03:21:11;;;;;;;23.60;13.13;;;;;;;;;;5004835;28;20029;-89
2022/03/24 03:23:38;;;;;;;27.38;12.30;;;;;;;;;;4994498;28;20026;-86
2022/03/24 03:26:07;;;;;;;20.05;11.65;;;;;;;;;;4994439;28;20022;-87
2022/03/24 03:28:34;;;;;;;24.88;13.27;;;;;;;;;;4994145;28;20026;-85
2022/03/24 03:31:00;;;;;;;24.05;12.15;;;;;;;;;;4976667;28;20034;-85
2022/03/24 03:33:26;;;;;;;24.77;13.52;;;;;;;;;;4977617;28;20520;-86
2022/03/24 03:35:52;;;;;;;25.02;13.95;;;;;;;;;;4996300;28;20401;-85
2022/03/24 03:38:19;;;;;;;24.90;13.73;;;;;;;;;;4976835;28;20031;-86
2022/03/24 03:40:48;;;;;;;26.33;14.05;;;;;;;;;;4977052;28;20027;-86
2022/03/24 03:43:14;;;;;;;27.50;14.40;;;;;;;;;;4994145;28;20462;-87
2022/03/24 03:45:41;;;;;;;29.38;14.13;;;;;;;;;;4994595;28;20428;-86
2022/03/24 03:48:07;;;;;;;29.83;14.35;;;;;;;;;;4993724;28;20114;-86
2022/03/24 03:50:33;;;;;;;31.33;15.00;;;;;;;;;;4976642;28;20137;-87
2022/03/24 03:53:00;;;;;;;25.95;13.60;;;;;;;;;;5010866;28;20026;-83
2022/03/24 03:55:27;;;;;;;34.05;15.40;;;;;;;;;;5015111;28;20026;-85
2022/03/24 03:57:53;;;;;;;29.88;13.98;;;;;;;;;;5015346;28;20026;-85
2022/03/24 04:03:04;;;;;;;24.63;12.77;;;;;;;;;;4995758;28;20041;-85
2022/03/24 04:05:31;;;;;;;27.27;14.48;;;;;;;;;;4978700;28;20070;-86
2022/03/24 04:07:57;;;;;;;27.50;13.50;;;;;;;;;;4978136;28;20053;-87
2022/03/24 04:10:23;;;;;;;25.42;14.10;;;;;;;;;;4978137;28;20102;-86
2022/03/24 04:12:53;;;;;;;24.80;14.15;;;;;;;;;;4977852;28;20031;-86
2022/03/24 04:15:19;;;;;;;28.90;13.13;;;;;;;;;;4995707;28;20549;-87
2022/03/24 04:17:45;;;;;;;27.98;13.73;;;;;;;;;;5004832;28;20086;-85
2022/03/24 04:20:13;;;;;;;25.40;13.20;;;;;;;;;;4999054;28;20448;-86
2022/03/24 04:22:39;;;;;;;24.63;13.05;;;;;;;;;;4978404;28;20033;-85
2022/03/24 04:25:06;;;;;;;29.85;14.43;;;;;;;;;;4978524;28;20118;-87
2022/03/24 04:27:32;;;;;;;30.88;14.68;;;;;;;;;;4996198;28;20109;-85
2022/03/24 04:29:58;;;;;;;25.67;13.80;;;;;;;;;;4995592;28;20593;-85
2022/03/24 04:32:24;;;;;;;26.58;12.80;;;;;;;;;;4995148;28;20066;-85
2022/03/24 04:34:50;;;;;;;24.52;13.23;;;;;;;;;;4995641;28;20096;-85
2022/03/24 04:37:16;;;;;;;27.15;14.48;;;;;;;;;;4995383;28;20112;-87
2022/03/24 04:39:42;;;;;;;31.23;14.30;;;;;;;;;;4977100;28;20412;-86
2022/03/24 04:42:09;;;;;;;27.83;14.25;;;;;;;;;;4995052;28;20125;-86
2022/03/24 04:44:35;;;;;;;30.10;14.73;;;;;;;;;;4994701;28;20097;-86
2022/03/24 04:47:01;;;;;;;31.80;14.25;;;;;;;;;;4993924;28;20027;-87
2022/03/24 04:49:49;;;;;;;31.95;15.73;;;;;;;;;;4997903;28;20113;-86
2022/03/24 04:52:15;;;;;;;35.33;15.98;;;;;;;;;;4978891;28;20027;-86
2022/03/24 04:54:41;;;;;;;31.35;16.67;;;;;;;;;;4994549;28;20037;-86
2022/03/24 04:57:07;;;;;;;30.65;16.00;;;;;;;;;;4977484;28;20121;-86
2022/03/24 04:59:33;;;;;;;33.00;15.77;;;;;;;;;;4995307;28;20026;-85
2022/03/24 05:01:59;;;;;;;29.45;15.93;;;;;;;;;;4996783;28;20069;-86
2022/03/24 05:04:25;;;;;;;32.67;16.02;;;;;;;;;;4996538;28;20029;-86
2022/03/24 05:06:51;;;;;;;30.90;14.30;;;;;;;;;;4995495;28;20065;-85
2022/03/24 05:09:17;;;;;;;31.05;16.08;;;;;;;;;;4976793;28;20415;-85
2022/03/24 05:11:43;;;;;;;32.55;15.18;;;;;;;;;;4994645;28;20116;-86
2022/03/24 05:14:09;;;;;;;33.88;16.52;;;;;;;;;;4977042;28;20130;-86
2022/03/24 05:16:36;;;;;;;35.63;15.88;;;;;;;;;;4994373;28;20089;-86
2022/03/24 05:19:03;;;;;;;31.23;16.15;;;;;;;;;;5008551;28;20022;-86
2022/03/24 05:21:29;;;;;;;39.80;17.15;;;;;;;;;;4975231;28;20081;-87
2022/03/24 05:23:55;;;;;;;35.75;15.65;;;;;;;;;;4992846;28;20031;-86
2022/03/24 05:26:23;;;;;;;33.90;15.68;;;;;;;;;;4993170;28;20041;-86
2022/03/24 05:28:49;;;;;;;40.00;16.77;;;;;;;;;;4993370;28;20076;-85
2022/03/24 05:31:16;;;;;;;38.05;17.73;;;;;;;;;;4992835;28;20042;-85
2022/03/24 05:33:42;;;;;;;42.33;15.95;;;;;;;;;;4993073;28;20065;-86
2022/03/24 05:36:08;;;;;;;34.85;16.15;;;;;;;;;;4975730;28;20037;-86
2022/03/24 05:38:34;;;;;;;35.35;16.27;;;;;;;;;;4993940;28;20027;-86
2022/03/24 05:41:01;;;;;;;33.97;14.82;;;;;;;;;;4993706;28;20098;-84
2022/03/24 05:43:27;;;;;;;30.77;15.25;;;;;;;;;;4993703;28;20490;-86
2022/03/24 05:45:53;;;;;;;34.78;15.63;;;;;;;;;;4977571;28;20018;-86
2022/03/24 05:48:19;;;;;;;31.05;15.07;;;;;;;;;;4995674;28;20033;-87
2022/03/24 05:50:45;;;;;;;33.90;15.45;;;;;;;;;;4979098;28;20019;-85
2022/03/24 05:53:11;;;;;;;28.60;14.77;;;;;;;;;;4979090;28;20026;-87
2022/03/24 05:55:38;;;;;;;34.20;15.40;;;;;;;;;;4999198;28;20350;-86
2022/03/24 05:58:04;;;;;;;29.58;14.68;;;;;;;;;;4996792;28;20018;-87
2022/03/24 06:00:31;;;;;;;33.22;14.68;;;;;;;;;;4991140;28;20022;-87
2022/03/24 06:02:57;;;;;;;34.05;15.60;;;;;;;;;;4976500;28;20042;-85
2022/03/24 06:05:25;;;;;;;33.35;14.75;;;;;;;;;;4976858;28;20034;-85
2022/03/24 06:07:51;;;;;;;29.50;14.63;;;;;;;;;;4994599;28;20045;-86
2022/03/24 06:10:17;;;;;;;32.50;14.52;;;;;;;;;;4978307;28;20046;-86
2022/03/24 06:12:43;;;;;;;32.50;15.25;;;;;;;;;;4998370;28;20471;-86
2022/03/24 06:15:09;;;;;;;29.38;15.25;;;;;;;;;;4980565;28;20022;-85
2022/03/24 06:17:35;;;;;;;37.67;14.50;;;;;;;;;;5001565;28;20028;-86
2022/03/24 06:20:31;;;;;;;32.70;15.65;;;;;;;;;;4997333;28;20073;-86
2022/03/24 06:22:57;;;;;;;30.65;14.43;;;;;;;;;;4977554;28;20029;-86
2022/03/24 06:25:23;;;;;;;38.25;14.30;;;;;;;;;;4993186;28;20033;-85
2022/03/24 06:30:56;;;;;;;36.97;15.15;;;;;;;;;;4996799;28;20092;-86
2022/03/24 06:42:25;;;;;;;32.85;15.23;;;;;;;;;;5033371;28;20033;-88
2022/03/24 06:44:51;;;;;;;28.50;13.80;;;;;;;;;;5173221;23;20054;-88
2022/03/24 06:47:17;;;;;;;31.10;16.00;;;;;;;;;;5020860;28;20018;-87
2022/03/24 06:49:43;;;;;;;33.65;14.25;;;;;;;;;;5038241;28;20029;-88
2022/03/24 06:52:10;;;;;;;29.50;14.82;;;;;;;;;;4999637;28;20061;-88
2022/03/24 06:54:36;;;;;;;35.67;14.55;;;;;;;;;;4994347;28;20018;-87
2022/03/24 06:57:02;;;;;;;31.58;14.40;;;;;;;;;;5018289;28;20033;-87
2022/03/24 06:59:51;;;;;;;31.15;14.25;;;;;;;;;;4997827;28;20041;-87
2022/03/24 07:02:17;;;;;;;32.90;13.82;;;;;;;;;;4999452;28;20022;-88
2022/03/24 07:04:43;;;;;;;27.27;13.45;;;;;;;;;;4999074;28;20037;-87
2022/03/24 07:07:09;;;;;;;36.75;14.15;;;;;;;;;;4998694;28;20018;-89
2022/03/24 07:10:06;;;;;;;29.15;14.25;;;;;;;;;;5016258;28;20034;-88
2022/03/24 07:15:08;;;;;;;32.55;14.10;;;;;;;;;;5166522;23;20059;-88
2022/03/24 07:17:37;;;;;;;32.58;13.70;;;;;;;;;;5015647;28;20042;-88
2022/03/24 07:20:04;;;;;;;27.92;14.93;;;;;;;;;;5005736;28;20489;-88
2022/03/24 07:22:37;;;;;;;31.77;13.43;;;;;;;;;;5001256;28;20435;-88
2022/03/24 07:25:05;;;;;;;30.77;14.52;;;;;;;;;;4996401;28;20034;-88
2022/03/24 07:27:31;;;;;;;33.92;13.73;;;;;;;;;;4995324;28;20030;-87
2022/03/24 07:30:09;;;;;;;29.42;14.35;;;;;;;;;;4995020;28;20026;-87
2022/03/24 07:33:09;;;;;;;31.55;14.23;;;;;;;;;;4994957;28;20447;-88
2022/03/24 07:35:41;;;;;;;30.08;14.55;;;;;;;;;;4976345;28;20403;-86
2022/03/24 07:38:07;;;;;;;26.65;13.80;;;;;;;;;;4971015;28;20043;-87
2022/03/24 07:40:33;;;;;;;34.28;14.23;;;;;;;;;;4975728;28;20027;-86
2022/03/24 07:42:59;;;;;;;28.98;13.73;;;;;;;;;;4958250;28;20372;-86
2022/03/24 07:45:26;;;;;;;33.45;15.23;;;;;;;;;;4975717;28;20077;-85
2022/03/24 07:48:07;;;;;;;34.95;14.77;;;;;;;;;;4975455;28;20586;-86
2022/03/24 07:50:34;;;;;;;26.30;13.10;;;;;;;;;;4988036;28;20164;-87
2022/03/24 07:53:09;;;;;;;28.85;14.25;;;;;;;;;;4994670;28;20034;-86
2022/03/24 07:55:38;;;;;;;28.00;14.20;;;;;;;;;;4977576;28;20109;-86
2022/03/24 07:58:04;;;;;;;28.95;13.95;;;;;;;;;;4971797;28;20542;-85
2022/03/24 08:00:38;;;;;;;28.80;14.50;;;;;;;;;;4959252;28;20115;-85
2022/03/24 08:03:07;;;;;;;29.63;14.23;;;;;;;;;;4957886;28;20042;-86
2022/03/24 08:05:37;;;;;;;38.13;16.77;;;;;;;;;;4974158;28;20030;-84
2022/03/24 08:08:05;;;;;;;33.33;15.43;;;;;;;;;;4990380;28;20030;-85
2022/03/24 08:10:34;;;;;;;32.03;13.07;;;;;;;;;;4994629;28;20540;-85
2022/03/24 08:13:00;;;;;;;29.58;15.30;;;;;;;;;;4987095;28;20121;-86
2022/03/24 08:15:28;;;;;;;27.75;12.95;;;;;;;;;;4962898;28;20108;-86
2022/03/24 08:17:55;;;;;;;30.45;12.95;;;;;;;;;;4976810;28;20042;-87
2022/03/24 08:20:21;;;;;;;27.38;14.20;;;;;;;;;;4976076;28;20036;-85
2022/03/24 08:22:47;;;;;;;32.42;13.57;;;;;;;;;;4993821;28;20501;-85
2022/03/24 08:28:14;;;;;;;25.95;13.57;;;;;;;;;;4977784;28;20089;-82
2022/03/24 08:30:41;;;;;;;26.95;13.38;;;;;;;;;;4962051;28;20026;-81
2022/03/24 08:36:11;;;;;;;22.88;12.40;;;;;;;;;;4987048;28;20082;-84
2022/03/24 08:38:37;;;;;;;30.35;12.48;;;;;;;;;;4962655;28;20085;-82
2022/03/24 08:41:03;;;;;;;25.85;13.00;;;;;;;;;;4976334;28;20026;-83
2022/03/24 08:43:29;;;;;;;23.45;12.00;;;;;;;;;;4977046;28;20034;-83
2022/03/24 08:45:55;;;;;;;20.40;11.55;;;;;;;;;;4977585;28;20019;-84
2022/03/24 08:48:21;;;;;;;26.67;12.57;;;;;;;;;;4993400;28;20054;-80
2022/03/24 08:50:47;;;;;;;27.13;12.80;;;;;;;;;;4994979;28;20061;-82
2022/03/24 08:53:13;;;;;;;26.00;12.68;;;;;;;;;;4977341;28;20027;-82
2022/03/24 08:55:49;;;;;;;24.20;12.50;;;;;;;;;;4977184;28;20034;-84
2022/03/24 08:58:18;;;;;;;24.83;12.18;;;;;;;;;;4970780;28;20190;-81
2022/03/24 09:00:45;;;;;;;22.60;12.45;;;;;;;;;;4957405;28;20082;-82
2022/03/24 09:03:13;;;;;;;19.13;11.73;;;;;;;;;;4975035;28;20065;-84
2022/03/24 09:06:06;;;;;;;22.33;13.25;;;;;;;;;;4958125;28;20031;-81
2022/03/24 09:08:33;;;;;;;22.98;12.75;;;;;;;;;;4896778;29;20063;-82
2022/03/24 09:11:48;;;;;;;23.10;11.60;;;;;;;;;;4993791;28;20089;-81
2022/03/24 09:14:17;;;;;;;19.23;11.88;;;;;;;;;;4885869;29;20512;-82
2022/03/24 09:16:47;;;;;;;20.67;12.25;;;;;;;;;;4891759;29;20047;-82
2022/03/24 09:19:13;;;;;;;22.50;12.27;;;;;;;;;;4944895;28;20035;-84
2022/03/24 09:21:39;;;;;;;18.75;12.23;;;;;;;;;;4974149;28;20062;-86
2022/03/24 09:24:05;;;;;;;19.98;11.60;;;;;;;;;;4974865;28;20114;-84
2022/03/24 09:26:31;;;;;;;26.27;12.95;;;;;;;;;;4974515;28;20124;-87
2022/03/24 09:29:01;;;;;;;22.77;12.60;;;;;;;;;;4968592;28;20034;-88
2022/03/24 09:31:30;;;;;;;23.70;13.35;;;;;;;;;;4969482;28;20490;-88
2022/03/24 09:34:02;;;;;;;20.17;12.75;;;;;;;;;;4991779;28;20030;-89
2022/03/24 09:36:29;;;;;;;22.50;13.25;;;;;;;;;;4990376;28;20025;-91
2022/03/24 09:38:57;;;;;;;25.10;13.13;;;;;;;;;;4974936;28;20483;-86
2022/03/24 09:41:27;;;;;;;19.83;12.02;;;;;;;;;;4963610;28;20058;-89
2022/03/24 09:43:54;;;;;;;20.33;13.95;;;;;;;;;;4976266;28;20084;-89
2022/03/24 09:46:20;;;;;;;17.58;13.32;;;;;;;;;;4983282;28;20386;-91
2022/03/24 09:48:47;;;;;;;22.75;13.52;;;;;;;;;;4997679;28;20026;-91
2022/03/24 09:51:14;;;;;;;21.25;14.07;;;;;;;;;;4979108;28;20471;-89
2022/03/24 09:53:41;;;;;;;20.92;13.27;;;;;;;;;;4997730;28;20108;-87
2022/03/24 09:56:08;;;;;;;22.05;13.02;;;;;;;;;;5001130;28;20105;-91
2022/03/24 09:58:34;;;;;;;23.42;14.43;;;;;;;;;;4977081;28;20042;-89
2022/03/24 10:01:04;;;;;;;17.38;13.13;;;;;;;;;;4994903;28;20487;-90
2022/03/24 10:03:30;;;;;;;19.02;12.95;;;;;;;;;;4970876;28;20105;-88
2022/03/24 10:06:07;;;;;;;24.27;13.70;;;;;;;;;;4988922;28;20027;-90
2022/03/24 10:08:36;;;;;;;24.73;13.63;;;;;;;;;;4979801;28;20042;-89
2022/03/24 10:11:11;;;;;;;17.40;13.15;;;;;;;;;;4996893;28;20474;-93
2022/03/24 10:13:44;;;;;;;21.88;12.75;;;;;;;;;;4967017;28;20022;-91
2022/03/24 10:16:13;;;;;;;19.35;12.98;;;;;;;;;;4979114;28;20113;-91
2022/03/24 10:18:56;;;;;;;25.65;14.65;;;;;;;;;;4997000;28;20478;-87
2022/03/24 10:21:23;;;;;;;22.20;13.85;;;;;;;;;;4994179;28;20028;-88
2022/03/24 10:23:49;;;;;;;23.83;14.15;;;;;;;;;;4978784;28;20032;-88
2022/03/24 10:26:15;;;;;;;21.58;14.10;;;;;;;;;;4997112;28;20022;-90
2022/03/24 10:28:57;;;;;;;25.85;14.50;;;;;;;;;;4996103;28;20026;-89
2022/03/24 10:31:32;;;;;;;21.00;14.20;;;;;;;;;;4959966;28;20033;-88
2022/03/24 10:33:58;;;;;;;20.42;14.70;;;;;;;;;;4960589;28;20023;-89
2022/03/24 10:36:26;;;;;;;20.15;13.38;;;;;;;;;;4962313;28;20038;-89
2022/03/24 10:38:53;;;;;;;23.25;13.82;;;;;;;;;;4977810;28;20066;-91
2022/03/24 10:41:22;;;;;;;19.65;13.93;;;;;;;;;;4982956;28;20015;-91
2022/03/24 10:43:50;;;;;;;22.02;13.98;;;;;;;;;;4987520;28;20085;-86
2022/03/24 10:46:25;;;;;;;25.40;14.60;;;;;;;;;;4981041;28;20133;-86
2022/03/24 10:48:52;;;;;;;19.80;13.20;;;;;;;;;;4980203;28;20031;-86
2022/03/24 10:51:22;;;;;;;17.08;12.93;;;;;;;;;;4982061;28;20077;-85
2022/03/24 10:53:49;;;;;;;15.57;10.30;;;;;;;;;;4985938;28;20122;-85
2022/03/24 10:56:26;;;;;;;22.30;13.63;;;;;;;;;;4983491;28;20034;-84
2022/03/24 10:59:06;;;;;;;22.75;14.23;;;;;;;;;;4976702;28;20057;-81
2022/03/24 11:01:33;;;;;;;23.73;11.85;;;;;;;;;;4992019;28;20066;-85
2022/03/24 11:04:19;;;;;;;21.70;11.65;;;;;;;;;;4979502;28;20068;-84
2022/03/24 11:06:51;;;;;;;20.23;13.52;;;;;;;;;;4965803;28;20043;-84
2022/03/24 11:15:08;;;;;;;25.40;13.65;;;;;;;;;;5014399;23;20181;-84
2022/03/24 11:17:35;;;;;;;16.40;12.88;;;;;;;;;;4978160;28;20054;-84
2022/03/24 11:20:49;;;;;;;;;;;;;;;;;;;;;
2022/03/24 11:23:54;;;;;;;22.30;14.27;;;;;;;;;;4945662;28;20114;-83
2022/03/24 11:26:21;;;;;;;19.25;10.88;;;;;;;;;;4919079;28;20855;-86
2022/03/24 11:28:48;;;;;;;24.95;13.35;;;;;;;;;;4982528;28;20030;-84
2022/03/24 11:31:24;;;;;;;17.35;12.00;;;;;;;;;;4961750;28;20142;-85
2022/03/24 11:33:52;;;;;;;23.42;13.15;;;;;;;;;;4978173;28;20046;-85
2022/03/24 11:36:21;;;;;;;25.70;14.30;;;;;;;;;;4974826;28;20050;-88
2022/03/24 11:38:48;;;;;;;18.55;13.43;;;;;;;;;;4974650;28;20057;-86
2022/03/24 11:41:22;;;;;;;17.95;13.45;;;;;;;;;;4971278;28;20584;-87
2022/03/24 11:43:53;;;;;;;23.17;12.82;;;;;;;;;;4982461;28;20027;-89
2022/03/24 11:46:19;;;;;;;;;;;;;;;;;;4975089;28;20026;-85
2022/03/24 11:48:45;;;;;;;19.40;13.35;;;;;;;;;;4973654;28;19929;-85
2022/03/24 11:51:11;;;;;;;19.98;13.57;;;;;;;;;;4974207;28;20045;-86
2022/03/24 11:54:09;;;;;;;20.50;14.45;;;;;;;;;;4974138;28;20039;-90
2022/03/24 11:56:35;;;;;;;19.70;12.82;;;;;;;;;;4954931;28;20046;-89
2022/03/24 11:59:02;;;;;;;20.45;13.52;;;;;;;;;;4957658;28;20027;-89
2022/03/24 12:01:33;;;;;;;25.45;13.30;;;;;;;;;;4975331;28;20034;-89
2022/03/24 12:04:00;;;;;;;22.02;14.40;;;;;;;;;;4965547;28;20046;-87
2022/03/24 12:09:08;;;;;;;19.45;14.38;;;;;;;;;;4976048;28;20034;-86
2022/03/24 12:11:35;;;;;;;22.15;14.90;;;;;;;;;;4957071;28;20041;-86
2022/03/24 12:14:03;;;;;;;23.20;14.60;;;;;;;;;;4967693;28;20411;-86
2022/03/24 12:16:29;;;;;;;24.60;13.98;;;;;;;;;;4974885;28;20027;-85
2022/03/24 12:18:56;;;;;;;24.83;14.27;;;;;;;;;;4988532;28;20030;-86
2022/03/24 12:21:23;;;;;;;26.20;14.07;;;;;;;;;;4993722;28;20026;-85
2022/03/24 12:24:08;;;;;;;22.73;13.77;;;;;;;;;;4977801;28;20095;-86
2022/03/24 12:26:39;;;;;;;22.98;14.85;;;;;;;;;;4974628;28;20034;-85
2022/03/24 12:29:11;;;;;;;23.77;14.60;;;;;;;;;;4955133;29;20404;-84
2022/03/24 12:31:56;;;;;;;20.65;13.00;;;;;;;;;;4959500;29;20124;-84
2022/03/24 12:34:52;;;;;;;26.70;14.68;;;;;;;;;;4954799;28;20027;-84
2022/03/24 12:37:27;;;;;;;28.05;14.60;;;;;;;;;;4973444;28;20019;-85
2022/03/24 12:40:05;;;;;;;21.90;13.55;;;;;;;;;;4974078;28;20030;-85
2022/03/24 12:45:10;;;;;;;24.58;13.30;;;;;;;;;;5039278;23;20069;-86
2022/03/24 12:47:45;;;;;;;29.27;13.05;;;;;;;;;;4994915;28;20118;-85
2022/03/24 12:50:33;;;;;;;23.50;14.15;;;;;;;;;;5012119;28;20034;-86
2022/03/24 12:53:04;;;;;;;23.90;14.27;;;;;;;;;;4986685;28;20049;-85
2022/03/24 12:58:24;;;;;;;28.90;14.65;;;;;;;;;;4992392;28;20132;-85
2022/03/24 13:00:51;;;;;;;23.90;14.82;;;;;;;;;;4996406;28;20053;-85
2022/03/24 13:03:54;;;;;;;26.80;15.00;;;;;;;;;;5000487;28;20058;-85
2022/03/24 13:06:23;;;;;;;24.35;14.68;;;;;;;;;;4969739;28;20035;-85
2022/03/24 13:09:07;;;;;;;31.77;16.08;;;;;;;;;;4992853;28;20149;-86
2022/03/24 13:11:48;;;;;;;22.73;13.80;;;;;;;;;;4992533;28;20046;-87
2022/03/24 13:14:14;;;;;;;27.98;15.18;;;;;;;;;;4975377;28;20026;-86
2022/03/24 13:16:43;;;;;;;25.90;14.52;;;;;;;;;;4991651;28;20062;-86
2022/03/24 13:19:12;;;;;;;27.25;14.82;;;;;;;;;;4993942;28;20713;-86
2022/03/24 13:21:38;;;;;;;23.80;13.57;;;;;;;;;;5005099;28;20014;-87
2022/03/24 13:24:05;;;;;;;21.60;13.48;;;;;;;;;;5024252;23;20049;-87
2022/03/24 13:27:02;;;;;;;21.77;14.52;;;;;;;;;;5018115;28;20046;-85
2022/03/24 13:29:44;;;;;;;23.63;13.98;;;;;;;;;;5001818;28;20123;-87
2022/03/24 13:32:15;;;;;;;29.80;14.95;;;;;;;;;;5005883;28;20497;-86
2022/03/24 13:35:00;;;;;;;21.98;14.13;;;;;;;;;;4997071;28;20100;-86
2022/03/24 13:37:52;;;;;;;23.33;15.10;;;;;;;;;;4978690;28;20085;-86
2022/03/24 13:43:29;;;;;;;25.48;15.85;;;;;;;;;;4977972;28;20066;-85
2022/03/24 13:45:55;;;;;;;26.38;15.30;;;;;;;;;;4982852;28;20038;-84
2022/03/24 13:48:27;;;;;;;24.38;15.10;;;;;;;;;;4992514;28;20088;-87
2022/03/24 13:50:59;;;;;;;27.85;16.23;;;;;;;;;;4987216;28;20078;-86
2022/03/24 13:53:29;;;;;;;24.38;14.05;;;;;;;;;;4977959;28;20045;-87
2022/03/24 13:56:27;;;;;;;26.57;14.90;;;;;;;;;;4977470;28;20077;-86
2022/03/24 13:58:59;;;;;;;25.15;14.35;;;;;;;;;;4938381;28;20047;-86
2022/03/24 14:01:25;;;;;;;24.40;15.70;;;;;;;;;;4977286;28;20114;-87
2022/03/24 14:03:53;;;;;;;30.42;16.15;;;;;;;;;;4959989;28;20058;-87
2022/03/24 14:06:22;;;;;;;25.38;14.90;;;;;;;;;;4976882;28;20042;-87
2022/03/24 14:08:49;;;;;;;23.52;14.85;;;;;;;;;;4977136;28;20054;-86
2022/03/24 14:11:20;;;;;;;24.75;15.30;;;;;;;;;;4982479;28;20058;-85
2022/03/24 14:13:49;;;;;;;26.27;15.05;;;;;;;;;;4991163;28;20034;-86
2022/03/24 14:16:17;;;;;;;22.27;14.02;;;;;;;;;;4995743;28;20072;-85
2022/03/24 14:19:05;;;;;;;21.63;14.02;;;;;;;;;;4987809;28;20065;-86
2022/03/24 14:21:38;;;;;;;24.10;15.07;;;;;;;;;;4986330;28;20023;-85
2022/03/24 14:24:04;;;;;;;22.90;13.85;;;;;;;;;;4987902;28;20086;-86
2022/03/24 14:26:30;;;;;;;22.42;15.82;;;;;;;;;;4973425;28;20491;-86
2022/03/24 14:28:56;;;;;;;25.27;15.15;;;;;;;;;;4982040;28;20149;-85
2022/03/24 14:31:25;;;;;;;25.63;16.10;;;;;;;;;;4965915;28;20026;-87
2022/03/24 14:33:52;;;;;;;23.92;16.05;;;;;;;;;;4963490;28;20019;-87
2022/03/24 14:36:19;;;;;;;26.42;15.65;;;;;;;;;;4958518;28;20026;-86
2022/03/24 14:42:08;;;;;;;23.08;15.95;;;;;;;;;;4975043;28;20038;-85
2022/03/24 14:44:34;;;;;;;24.52;15.75;;;;;;;;;;4975943;28;20061;-85
2022/03/24 14:50:17;;;;;;;25.17;15.55;;;;;;;;;;4950878;28;20049;-86
2022/03/24 14:52:46;;;;;;;23.55;15.05;;;;;;;;;;4989388;28;20121;-85
2022/03/24 14:55:12;;;;;;;23.05;15.75;;;;;;;;;;4994069;28;20065;-86
2022/03/24 14:57:40;;;;;;;22.48;15.13;;;;;;;;;;4995546;28;20030;-87
2022/03/24 15:00:08;;;;;;;21.80;14.95;;;;;;;;;;4994586;28;20096;-87
2022/03/24 15:05:32;;;;;;;26.27;15.20;;;;;;;;;;5026214;22;20046;-89
2022/03/24 15:07:58;;;;;;;21.83;14.90;;;;;;;;;;5001652;28;20054;-88
2022/03/24 15:10:24;;;;;;;23.55;14.15;;;;;;;;;;5002627;28;20084;-88
2022/03/24 15:12:58;;;;;;;22.67;15.77;;;;;;;;;;5000602;28;20045;-89
2022/03/24 15:18:25;;;;;;;22.50;14.07;;;;;;;;;;5005510;28;20057;-87
2022/03/24 15:20:51;;;;;;;23.33;14.55;;;;;;;;;;4997910;28;20065;-87
2022/03/24 15:23:20;;;;;;;21.25;14.38;;;;;;;;;;5005194;28;20041;-85
2022/03/24 15:25:46;;;;;;;27.52;16.00;;;;;;;;;;4976202;28;20423;-88